sensor_id;sensor_type;location;lat;lon;timestamp;pressure;altitude;pressure_sealevel;temperature;humidity
62712;BME280;48772;55.586;37.730;2023-06-26T00:02:15;99125.78;;;18.36;100.00
62712;BME280;48772;55.586;37.730;2023-06-26T00:04:52;99114.47;;;18.32;100.00
62712;BME280;48772;55.586;37.730;2023-06-26T00:07:20;99110.06;;;18.39;100.00
62712;BME280;48772;55.586;37.730;2023-06-26T00:09:46;99118.47;;;18.22;100.00
62712;BME280;48772;55.586;37.730;2023-06-26T00:12:34;99090.94;;;17.89;100.00
62712;BME280;48772;55.586;37.730;2023-06-26T00:15:08;99077.44;;;17.75;100.00
62712;BME280;48772;55.586;37.730;2023-06-26T00:17:55;99088.69;;;17.78;100.00
62712;BME280;48772;55.586;37.730;2023-06-26T00:20:24;99104.66;;;17.88;100.00
62712;BME280;48772;55.586;37.730;2023-06-26T00:23:12;99110.06;;;17.88;100.00
62712;BME280;48772;55.586;37.730;2023-06-26T00:25:41;99098.31;;;17.81;100.00
62712;BME280;48772;55.586;37.730;2023-06-26T00:28:18;99089.72;;;17.77;100.00
62712;BME280;48772;55.586;37.730;2023-06-26T00:30:44;99086.84;;;17.79;100.00
62712;BME280;48772;55.586;37.730;2023-06-26T00:33:11;99045.78;;;17.54;100.00
62712;BME280;48772;55.586;37.730;2023-06-26T00:35:37;99119.38;;;18.00;100.00
62712;BME280;48772;55.586;37.730;2023-06-26T00:38:03;99112.66;;;17.96;100.00
62712;BME280;48772;55.586;37.730;2023-06-26T00:40:29;99098.22;;;17.89;100.00
62712;BME280;48772;55.586;37.730;2023-06-26T00:42:56;99110.78;;;17.96;100.00
62712;BME280;48772;55.586;37.730;2023-06-26T00:45:22;99108.34;;;17.87;100.00
62712;BME280;48772;55.586;37.730;2023-06-26T00:47:48;99103.38;;;17.76;100.00
62712;BME280;48772;55.586;37.730;2023-06-26T00:50:14;99104.06;;;17.78;100.00
62712;BME280;48772;55.586;37.730;2023-06-26T00:52:43;99096.41;;;17.67;100.00
62712;BME280;48772;55.586;37.730;2023-06-26T00:55:09;99118.09;;;17.73;100.00
62712;BME280;48772;55.586;37.730;2023-06-26T00:57:35;99105.38;;;17.37;100.00
62712;BME280;48772;55.586;37.730;2023-06-26T01:00:02;99119.72;;;16.99;100.00
62712;BME280;48772;55.586;37.730;2023-06-26T01:02:31;99126.00;;;16.91;100.00
62712;BME280;48772;55.586;37.730;2023-06-26T01:05:01;99104.13;;;16.86;100.00
62712;BME280;48772;55.586;37.730;2023-06-26T01:07:35;99101.53;;;17.01;100.00
62712;BME280;48772;55.586;37.730;2023-06-26T01:10:06;99117.66;;;17.09;100.00
62712;BME280;48772;55.586;37.730;2023-06-26T01:12:33;99117.03;;;16.99;100.00
62712;BME280;48772;55.586;37.730;2023-06-26T01:15:00;99121.38;;;17.08;100.00
62712;BME280;48772;55.586;37.730;2023-06-26T01:17:27;99110.94;;;17.05;100.00
62712;BME280;48772;55.586;37.730;2023-06-26T01:19:58;99114.91;;;17.17;100.00
62712;BME280;48772;55.586;37.730;2023-06-26T01:22:37;99099.81;;;17.08;100.00
62712;BME280;48772;55.586;37.730;2023-06-26T01:27:48;99120.00;;;17.12;100.00
62712;BME280;48772;55.586;37.730;2023-06-26T01:30:16;99124.38;;;17.13;100.00
62712;BME280;48772;55.586;37.730;2023-06-26T01:32:44;99124.38;;;17.13;100.00
62712;BME280;48772;55.586;37.730;2023-06-26T01:35:11;99113.13;;;17.09;100.00
62712;BME280;48772;55.586;37.730;2023-06-26T01:37:38;99069.13;;;16.86;100.00
62712;BME280;48772;55.586;37.730;2023-06-26T01:40:04;99105.03;;;17.09;100.00
62712;BME280;48772;55.586;37.730;2023-06-26T01:42:34;99120.44;;;17.23;100.00
62712;BME280;48772;55.586;37.730;2023-06-26T01:45:29;99120.63;;;17.22;100.00
62712;BME280;48772;55.586;37.730;2023-06-26T01:48:01;99120.47;;;17.15;100.00
62712;BME280;48772;55.586;37.730;2023-06-26T01:50:29;99126.38;;;17.19;100.00
62712;BME280;48772;55.586;37.730;2023-06-26T01:55:40;99123.44;;;17.28;100.00
62712;BME280;48772;55.586;37.730;2023-06-26T01:58:11;99121.72;;;17.35;100.00
62712;BME280;48772;55.586;37.730;2023-06-26T02:00:39;99108.06;;;17.37;100.00
62712;BME280;48772;55.586;37.730;2023-06-26T02:03:05;99104.00;;;17.41;100.00
62712;BME280;48772;55.586;37.730;2023-06-26T02:05:32;99116.41;;;17.50;100.00
62712;BME280;48772;55.586;37.730;2023-06-26T02:08:00;99105.16;;;17.46;100.00
62712;BME280;48772;55.586;37.730;2023-06-26T02:10:30;99111.69;;;17.52;100.00
62712;BME280;48772;55.586;37.730;2023-06-26T02:12:57;99121.69;;;17.66;100.00
62712;BME280;48772;55.586;37.730;2023-06-26T02:15:23;99113.91;;;17.71;100.00
62712;BME280;48772;55.586;37.730;2023-06-26T02:17:50;99097.03;;;17.69;100.00
62712;BME280;48772;55.586;37.730;2023-06-26T02:20:16;99118.31;;;17.86;100.00
62712;BME280;48772;55.586;37.730;2023-06-26T02:22:43;99110.41;;;17.85;100.00
62712;BME280;48772;55.586;37.730;2023-06-26T02:25:10;99088.91;;;17.77;100.00
62712;BME280;48772;55.586;37.730;2023-06-26T02:27:38;99121.41;;;17.98;100.00
62712;BME280;48772;55.586;37.730;2023-06-26T02:30:05;99128.50;;;17.99;100.00
62712;BME280;48772;55.586;37.730;2023-06-26T02:32:32;99066.75;;;17.67;100.00
62712;BME280;48772;55.586;37.730;2023-06-26T02:34:59;99121.72;;;18.03;100.00
62712;BME280;48772;55.586;37.730;2023-06-26T02:37:25;99117.03;;;17.97;100.00
62712;BME280;48772;55.586;37.730;2023-06-26T02:39:52;99089.28;;;17.88;100.00
62712;BME280;48772;55.586;37.730;2023-06-26T02:42:18;99101.22;;;17.94;100.00
62712;BME280;48772;55.586;37.730;2023-06-26T02:44:44;99069.28;;;17.83;100.00
62712;BME280;48772;55.586;37.730;2023-06-26T02:47:10;99103.31;;;18.21;100.00
62712;BME280;48772;55.586;37.730;2023-06-26T02:49:40;99118.44;;;18.44;100.00
62712;BME280;48772;55.586;37.730;2023-06-26T02:52:06;99118.81;;;18.56;100.00
62712;BME280;48772;55.586;37.730;2023-06-26T02:54:32;99116.00;;;18.64;100.00
62712;BME280;48772;55.586;37.730;2023-06-26T02:57:02;99115.28;;;18.70;100.00
62712;BME280;48772;55.586;37.730;2023-06-26T02:59:30;99111.91;;;18.68;100.00
62712;BME280;48772;55.586;37.730;2023-06-26T03:01:57;99104.38;;;18.63;100.00
62712;BME280;48772;55.586;37.730;2023-06-26T03:04:29;99108.47;;;18.74;100.00
62712;BME280;48772;55.586;37.730;2023-06-26T03:06:55;99108.53;;;18.80;100.00
62712;BME280;48772;55.586;37.730;2023-06-26T03:09:21;99102.03;;;18.89;100.00
62712;BME280;48772;55.586;37.730;2023-06-26T03:11:48;99107.13;;;18.99;100.00
62712;BME280;48772;55.586;37.730;2023-06-26T03:14:15;99099.66;;;19.01;100.00
62712;BME280;48772;55.586;37.730;2023-06-26T03:16:41;99094.66;;;18.98;100.00
62712;BME280;48772;55.586;37.730;2023-06-26T03:19:07;99096.47;;;19.12;100.00
62712;BME280;48772;55.586;37.730;2023-06-26T03:21:48;99100.75;;;19.21;100.00
62712;BME280;48772;55.586;37.730;2023-06-26T03:24:15;99102.59;;;19.35;100.00
62712;BME280;48772;55.586;37.730;2023-06-26T03:26:41;99089.50;;;19.38;100.00
62712;BME280;48772;55.586;37.730;2023-06-26T03:29:07;99101.03;;;19.47;100.00
62712;BME280;48772;55.586;37.730;2023-06-26T03:31:34;99093.19;;;19.52;100.00
62712;BME280;48772;55.586;37.730;2023-06-26T03:34:00;99088.47;;;19.61;100.00
62712;BME280;48772;55.586;37.730;2023-06-26T03:36:26;99075.84;;;19.68;100.00
62712;BME280;48772;55.586;37.730;2023-06-26T03:38:51;99092.03;;;19.82;100.00
62712;BME280;48772;55.586;37.730;2023-06-26T03:41:23;99089.94;;;19.84;100.00
62712;BME280;48772;55.586;37.730;2023-06-26T03:43:49;99092.25;;;20.08;100.00
62712;BME280;48772;55.586;37.730;2023-06-26T03:46:21;99097.66;;;20.08;100.00
62712;BME280;48772;55.586;37.730;2023-06-26T03:48:47;99061.78;;;20.00;100.00
62712;BME280;48772;55.586;37.730;2023-06-26T03:51:14;99085.69;;;20.24;100.00
62712;BME280;48772;55.586;37.730;2023-06-26T03:53:41;99038.25;;;20.00;100.00
62712;BME280;48772;55.586;37.730;2023-06-26T03:56:07;99083.09;;;20.37;100.00
62712;BME280;48772;55.586;37.730;2023-06-26T03:58:32;99064.72;;;20.32;100.00
62712;BME280;48772;55.586;37.730;2023-06-26T04:01:00;99075.63;;;20.39;100.00
62712;BME280;48772;55.586;37.730;2023-06-26T04:03:26;99046.03;;;20.37;100.00
62712;BME280;48772;55.586;37.730;2023-06-26T04:05:52;99077.00;;;20.62;100.00
62712;BME280;48772;55.586;37.730;2023-06-26T04:08:18;99075.78;;;20.71;100.00
62712;BME280;48772;55.586;37.730;2023-06-26T04:10:46;99070.16;;;20.73;100.00
62712;BME280;48772;55.586;37.730;2023-06-26T04:13:14;99040.91;;;20.55;100.00
62712;BME280;48772;55.586;37.730;2023-06-26T04:15:40;99082.47;;;20.75;100.00
62712;BME280;48772;55.586;37.730;2023-06-26T04:18:06;99103.50;;;21.01;100.00
62712;BME280;48772;55.586;37.730;2023-06-26T04:20:32;99091.41;;;21.10;100.00
62712;BME280;48772;55.586;37.730;2023-06-26T04:23:00;99086.41;;;21.13;100.00
62712;BME280;48772;55.586;37.730;2023-06-26T04:25:26;99073.63;;;20.94;100.00
62712;BME280;48772;55.586;37.730;2023-06-26T04:27:54;99086.41;;;21.13;100.00
62712;BME280;48772;55.586;37.730;2023-06-26T04:30:20;99083.50;;;21.15;100.00
62712;BME280;48772;55.586;37.730;2023-06-26T04:32:46;99092.69;;;21.20;100.00
62712;BME280;48772;55.586;37.730;2023-06-26T04:35:13;99093.53;;;21.27;100.00
62712;BME280;48772;55.586;37.730;2023-06-26T04:37:38;99071.44;;;21.30;100.00
62712;BME280;48772;55.586;37.730;2023-06-26T04:40:05;99094.44;;;21.60;100.00
62712;BME280;48772;55.586;37.730;2023-06-26T04:42:32;99094.09;;;21.76;100.00
62712;BME280;48772;55.586;37.730;2023-06-26T04:44:58;99080.28;;;21.58;100.00
62712;BME280;48772;55.586;37.730;2023-06-26T04:47:24;99082.00;;;21.85;100.00
62712;BME280;48772;55.586;37.730;2023-06-26T04:49:50;99062.72;;;21.67;100.00
62712;BME280;48772;55.586;37.730;2023-06-26T04:52:16;99088.66;;;21.89;100.00
62712;BME280;48772;55.586;37.730;2023-06-26T04:54:42;99083.25;;;21.89;100.00
62712;BME280;48772;55.586;37.730;2023-06-26T04:57:08;99092.03;;;21.91;100.00
62712;BME280;48772;55.586;37.730;2023-06-26T04:59:37;99086.59;;;21.91;100.00
62712;BME280;48772;55.586;37.730;2023-06-26T05:02:03;99071.13;;;22.05;100.00
62712;BME280;48772;55.586;37.730;2023-06-26T05:04:30;99095.56;;;22.18;100.00
62712;BME280;48772;55.586;37.730;2023-06-26T05:06:57;99080.31;;;22.23;100.00
62712;BME280;48772;55.586;37.730;2023-06-26T05:09:23;99074.25;;;22.08;100.00
62712;BME280;48772;55.586;37.730;2023-06-26T05:11:49;99080.31;;;22.10;100.00
62712;BME280;48772;55.586;37.730;2023-06-26T05:14:14;99087.81;;;22.08;100.00
62712;BME280;48772;55.586;37.730;2023-06-26T05:16:40;99082.19;;;22.03;100.00
62712;BME280;48772;55.586;37.730;2023-06-26T05:19:06;99088.66;;;22.15;100.00
62712;BME280;48772;55.586;37.730;2023-06-26T05:21:32;99088.66;;;22.28;100.00
62712;BME280;48772;55.586;37.730;2023-06-26T05:24:02;99079.03;;;22.32;100.00
62712;BME280;48772;55.586;37.730;2023-06-26T05:26:28;99074.03;;;22.29;100.00
62712;BME280;48772;55.586;37.730;2023-06-26T05:28:55;99089.50;;;22.35;100.00
62712;BME280;48772;55.586;37.730;2023-06-26T05:31:21;99084.47;;;22.45;100.00
62712;BME280;48772;55.586;37.730;2023-06-26T05:33:51;99076.53;;;22.51;100.00
62712;BME280;48772;55.586;37.730;2023-06-26T05:36:22;99073.56;;;22.59;100.00
62712;BME280;48772;55.586;37.730;2023-06-26T05:38:49;99068.31;;;22.64;100.00
62712;BME280;48772;55.586;37.730;2023-06-26T05:41:16;99056.38;;;22.71;100.00
62712;BME280;48772;55.586;37.730;2023-06-26T05:43:42;99073.69;;;22.90;100.00
62712;BME280;48772;55.586;37.730;2023-06-26T05:46:08;99086.41;;;22.96;100.00
62712;BME280;48772;55.586;37.730;2023-06-26T05:48:33;99076.34;;;23.03;100.00
62712;BME280;48772;55.586;37.730;2023-06-26T05:51:00;99077.53;;;23.20;100.00
62712;BME280;48772;55.586;37.730;2023-06-26T05:53:26;99090.94;;;23.21;100.00
62712;BME280;48772;55.586;37.730;2023-06-26T05:55:52;99081.91;;;23.21;100.00
62712;BME280;48772;55.586;37.730;2023-06-26T05:58:20;99078.69;;;23.43;100.00
62712;BME280;48772;55.586;37.730;2023-06-26T06:00:46;99082.03;;;23.39;100.00
62712;BME280;48772;55.586;37.730;2023-06-26T06:03:12;99072.00;;;23.39;100.00
62712;BME280;48772;55.586;37.730;2023-06-26T06:05:38;99062.69;;;23.53;100.00
62712;BME280;48772;55.586;37.730;2023-06-26T06:08:04;99066.88;;;23.56;100.00
62712;BME280;48772;55.586;37.730;2023-06-26T06:10:30;99065.16;;;23.61;100.00
62712;BME280;48772;55.586;37.730;2023-06-26T06:12:57;99066.50;;;23.77;100.00
62712;BME280;48772;55.586;37.730;2023-06-26T06:15:27;99059.88;;;23.66;100.00
62712;BME280;48772;55.586;37.730;2023-06-26T06:17:53;99077.88;;;23.98;100.00
62712;BME280;48772;55.586;37.730;2023-06-26T06:20:19;99079.47;;;24.06;100.00
62712;BME280;48772;55.586;37.730;2023-06-26T06:22:46;99063.56;;;24.03;100.00
62712;BME280;48772;55.586;37.730;2023-06-26T06:25:14;99073.53;;;24.15;99.31
62712;BME280;48772;55.586;37.730;2023-06-26T06:27:41;99077.53;;;24.13;97.47
62712;BME280;48772;55.586;37.730;2023-06-26T06:30:07;99070.28;;;24.25;94.62
62712;BME280;48772;55.586;37.730;2023-06-26T06:32:33;99062.88;;;24.32;99.04
62712;BME280;48772;55.586;37.730;2023-06-26T06:34:59;99067.59;;;24.43;98.36
62712;BME280;48772;55.586;37.730;2023-06-26T06:37:30;99077.16;;;24.52;95.99
62712;BME280;48772;55.586;37.730;2023-06-26T06:39:57;99052.00;;;24.50;95.68
62712;BME280;48772;55.586;37.730;2023-06-26T06:42:23;99032.78;;;24.45;92.60
62712;BME280;48772;55.586;37.730;2023-06-26T06:44:49;99054.28;;;24.53;90.27
62712;BME280;48772;55.586;37.730;2023-06-26T06:47:15;99066.59;;;24.62;88.10
62712;BME280;48772;55.586;37.730;2023-06-26T06:49:41;99037.63;;;24.61;87.52
62712;BME280;48772;55.586;37.730;2023-06-26T06:52:07;99057.34;;;24.81;87.37
62712;BME280;48772;55.586;37.730;2023-06-26T06:54:53;99046.22;;;24.82;88.19
62712;BME280;48772;55.586;37.730;2023-06-26T06:57:21;99056.69;;;24.85;88.03
62712;BME280;48772;55.586;37.730;2023-06-26T06:59:47;99059.13;;;25.05;84.18
62712;BME280;48772;55.586;37.730;2023-06-26T07:02:16;99038.38;;;25.04;84.25
62712;BME280;48772;55.586;37.730;2023-06-26T07:04:43;99054.84;;;25.27;83.27
62712;BME280;48772;55.586;37.730;2023-06-26T07:07:18;99045.25;;;25.06;78.13
62712;BME280;48772;55.586;37.730;2023-06-26T07:09:44;99063.31;;;25.07;75.23
62712;BME280;48772;55.586;37.730;2023-06-26T07:12:13;99058.81;;;25.31;72.52
62712;BME280;48772;55.586;37.730;2023-06-26T07:14:40;99034.53;;;25.23;71.56
62712;BME280;48772;55.586;37.730;2023-06-26T07:17:06;99047.88;;;25.31;71.71
62712;BME280;48772;55.586;37.730;2023-06-26T07:19:32;99036.66;;;25.39;72.93
62712;BME280;48772;55.586;37.730;2023-06-26T07:21:57;99052.66;;;25.77;72.36
62712;BME280;48772;55.586;37.730;2023-06-26T07:24:23;99041.03;;;25.70;70.96
62712;BME280;48772;55.586;37.730;2023-06-26T07:26:49;99047.34;;;25.93;70.97
62712;BME280;48772;55.586;37.730;2023-06-26T07:29:15;99049.47;;;25.80;64.72
62712;BME280;48772;55.586;37.730;2023-06-26T07:31:43;99045.00;;;25.97;63.00
62712;BME280;48772;55.586;37.730;2023-06-26T07:34:10;99036.34;;;26.11;62.59
62712;BME280;48772;55.586;37.730;2023-06-26T07:36:36;99043.47;;;26.24;61.64
62712;BME280;48772;55.586;37.730;2023-06-26T07:39:02;99037.28;;;26.28;58.32
62712;BME280;48772;55.586;37.730;2023-06-26T07:41:28;99043.84;;;26.27;59.11
62712;BME280;48772;55.586;37.730;2023-06-26T07:43:57;99036.47;;;26.39;59.09
62712;BME280;48772;55.586;37.730;2023-06-26T07:46:23;99035.00;;;26.48;59.26
62712;BME280;48772;55.586;37.730;2023-06-26T07:48:49;99027.88;;;26.59;54.44
62712;BME280;48772;55.586;37.730;2023-06-26T07:51:15;99026.03;;;26.99;54.26
62712;BME280;48772;55.586;37.730;2023-06-26T07:53:41;99012.78;;;26.56;55.63
62712;BME280;48772;55.586;37.730;2023-06-26T07:56:06;99013.84;;;26.78;56.22
62712;BME280;48772;55.586;37.730;2023-06-26T07:58:32;99010.41;;;26.71;55.07
62712;BME280;48772;55.586;37.730;2023-06-26T08:00:58;99024.78;;;26.55;53.11
62712;BME280;48772;55.586;37.730;2023-06-26T08:03:24;99007.75;;;26.76;51.55
62712;BME280;48772;55.586;37.730;2023-06-26T08:05:50;99004.59;;;27.07;50.51
62712;BME280;48772;55.586;37.730;2023-06-26T08:08:15;98980.19;;;26.66;50.50
62712;BME280;48772;55.586;37.730;2023-06-26T08:10:41;99027.34;;;26.96;50.61
62712;BME280;48772;55.586;37.730;2023-06-26T08:13:07;99001.56;;;26.81;49.32
62712;BME280;48772;55.586;37.730;2023-06-26T08:15:33;99011.97;;;26.67;50.09
62712;BME280;48772;55.586;37.730;2023-06-26T08:17:59;99018.31;;;26.84;49.65
62712;BME280;48772;55.586;37.730;2023-06-26T08:20:24;99018.94;;;26.75;51.24
62712;BME280;48772;55.586;37.730;2023-06-26T08:22:50;99002.78;;;26.50;49.44
62712;BME280;48772;55.586;37.730;2023-06-26T08:25:18;99017.28;;;26.74;51.20
62712;BME280;48772;55.586;37.730;2023-06-26T08:27:45;99011.22;;;26.72;52.53
62712;BME280;48772;55.586;37.730;2023-06-26T08:30:11;99005.88;;;26.65;49.52
62712;BME280;48772;55.586;37.730;2023-06-26T08:32:37;99016.97;;;26.24;48.89
62712;BME280;48772;55.586;37.730;2023-06-26T08:35:03;99018.88;;;26.12;50.67
62712;BME280;48772;55.586;37.730;2023-06-26T08:37:29;99014.94;;;26.20;50.85
62712;BME280;48772;55.586;37.730;2023-06-26T08:39:59;99013.66;;;25.99;51.44
62712;BME280;48772;55.586;37.730;2023-06-26T08:42:25;99017.22;;;26.00;51.13
62712;BME280;48772;55.586;37.730;2023-06-26T08:44:51;99028.22;;;25.82;50.04
62712;BME280;48772;55.586;37.730;2023-06-26T08:47:18;99014.53;;;25.93;48.70
62712;BME280;48772;55.586;37.730;2023-06-26T08:49:57;99022.03;;;25.75;49.04
62712;BME280;48772;55.586;37.730;2023-06-26T08:52:31;99021.47;;;25.43;52.19
62712;BME280;48772;55.586;37.730;2023-06-26T08:55:02;99026.09;;;25.42;53.02
62712;BME280;48772;55.586;37.730;2023-06-26T08:57:30;99023.38;;;25.42;55.03
62712;BME280;48772;55.586;37.730;2023-06-26T08:59:57;99005.06;;;25.31;57.14
62712;BME280;48772;55.586;37.730;2023-06-26T09:02:22;99002.06;;;25.63;57.59
62712;BME280;48772;55.586;37.730;2023-06-26T09:04:49;99006.13;;;25.83;56.18
62712;BME280;48772;55.586;37.730;2023-06-26T09:07:16;99007.03;;;25.66;54.35
62712;BME280;48772;55.586;37.730;2023-06-26T09:09:42;99006.22;;;25.65;53.99
62712;BME280;48772;55.586;37.730;2023-06-26T09:12:11;98990.31;;;25.74;52.90
62712;BME280;48772;55.586;37.730;2023-06-26T09:14:37;98985.84;;;26.02;52.06
62712;BME280;48772;55.586;37.730;2023-06-26T09:17:04;98980.72;;;26.17;52.76
62712;BME280;48772;55.586;37.730;2023-06-26T09:19:30;98990.34;;;26.31;50.80
62712;BME280;48772;55.586;37.730;2023-06-26T09:21:55;99005.78;;;26.37;50.95
62712;BME280;48772;55.586;37.730;2023-06-26T09:24:22;99000.06;;;26.50;50.40
62712;BME280;48772;55.586;37.730;2023-06-26T09:26:48;98998.66;;;26.36;50.69
62712;BME280;48772;55.586;37.730;2023-06-26T09:29:15;98988.66;;;26.53;49.07
62712;BME280;48772;55.586;37.730;2023-06-26T09:31:41;98993.34;;;26.92;49.20
62712;BME280;48772;55.586;37.730;2023-06-26T09:34:07;98986.66;;;27.16;47.29
62712;BME280;48772;55.586;37.730;2023-06-26T09:36:33;98987.47;;;27.28;47.68
62712;BME280;48772;55.586;37.730;2023-06-26T09:39:01;98998.69;;;27.43;48.37
62712;BME280;48772;55.586;37.730;2023-06-26T09:41:27;98981.06;;;27.67;48.33
62712;BME280;48772;55.586;37.730;2023-06-26T09:43:54;98969.44;;;27.93;46.96
62712;BME280;48772;55.586;37.730;2023-06-26T09:46:27;98985.88;;;27.93;45.53
62712;BME280;48772;55.586;37.730;2023-06-26T09:49:10;98984.91;;;27.99;45.68
62712;BME280;48772;55.586;37.730;2023-06-26T09:51:39;98976.06;;;27.81;45.70
62712;BME280;48772;55.586;37.730;2023-06-26T09:54:05;98982.44;;;28.19;47.57
62712;BME280;48772;55.586;37.730;2023-06-26T09:56:33;98981.69;;;28.24;47.89
62712;BME280;48772;55.586;37.730;2023-06-26T09:59:01;98973.28;;;28.69;47.96
62712;BME280;48772;55.586;37.730;2023-06-26T10:01:28;98967.28;;;28.50;49.02
62712;BME280;48772;55.586;37.730;2023-06-26T10:03:54;98967.81;;;28.95;46.94
62712;BME280;48772;55.586;37.730;2023-06-26T10:06:31;98978.03;;;29.00;46.63
62712;BME280;48772;55.586;37.730;2023-06-26T10:09:00;98964.41;;;29.31;45.70
62712;BME280;48772;55.586;37.730;2023-06-26T10:11:37;98968.72;;;29.49;45.48
62712;BME280;48772;55.586;37.730;2023-06-26T10:14:07;98955.56;;;29.56;44.56
62712;BME280;48772;55.586;37.730;2023-06-26T10:16:35;98970.16;;;29.30;44.58
62712;BME280;48772;55.586;37.730;2023-06-26T10:19:06;98963.91;;;28.86;44.90
62712;BME280;48772;55.586;37.730;2023-06-26T10:21:34;98955.31;;;28.40;46.11
62712;BME280;48772;55.586;37.730;2023-06-26T10:24:06;98953.50;;;27.90;45.18
62712;BME280;48772;55.586;37.730;2023-06-26T10:26:35;98956.84;;;27.31;46.29
62712;BME280;48772;55.586;37.730;2023-06-26T10:29:05;98968.09;;;27.18;46.66
62712;BME280;48772;55.586;37.730;2023-06-26T10:31:32;98962.22;;;26.98;43.93
62712;BME280;48772;55.586;37.730;2023-06-26T10:33:59;98950.50;;;27.14;44.30
62712;BME280;48772;55.586;37.730;2023-06-26T10:36:31;98960.69;;;27.30;44.22
62712;BME280;48772;55.586;37.730;2023-06-26T10:39:01;98958.13;;;27.40;44.47
62712;BME280;48772;55.586;37.730;2023-06-26T10:41:38;98954.28;;;27.25;45.52
62712;BME280;48772;55.586;37.730;2023-06-26T10:44:11;98943.59;;;27.12;45.43
62712;BME280;48772;55.586;37.730;2023-06-26T10:46:51;98938.22;;;27.17;46.08
62712;BME280;48772;55.586;37.730;2023-06-26T10:49:20;98952.25;;;27.20;46.25
62712;BME280;48772;55.586;37.730;2023-06-26T10:51:48;98956.56;;;27.44;45.98
62712;BME280;48772;55.586;37.730;2023-06-26T10:54:16;98949.44;;;27.15;45.32
62712;BME280;48772;55.586;37.730;2023-06-26T10:56:45;98946.59;;;27.71;44.75
62712;BME280;48772;55.586;37.730;2023-06-26T10:59:18;98923.91;;;27.76;43.88
62712;BME280;48772;55.586;37.730;2023-06-26T11:01:46;98939.22;;;27.88;43.26
62712;BME280;48772;55.586;37.730;2023-06-26T11:04:14;98928.25;;;28.26;43.70
62712;BME280;48772;55.586;37.730;2023-06-26T11:06:45;98922.91;;;27.98;43.58
62712;BME280;48772;55.586;37.730;2023-06-26T11:09:14;98927.16;;;28.27;42.64
62712;BME280;48772;55.586;37.730;2023-06-26T11:11:59;98927.28;;;28.38;42.98
62712;BME280;48772;55.586;37.730;2023-06-26T11:14:31;98917.97;;;28.38;42.78
62712;BME280;48772;55.586;37.730;2023-06-26T11:16:58;98911.06;;;28.53;41.51
62712;BME280;48772;55.586;37.730;2023-06-26T11:19:26;98920.53;;;28.88;40.60
62712;BME280;48772;55.586;37.730;2023-06-26T11:21:58;98909.81;;;28.87;39.14
62712;BME280;48772;55.586;37.730;2023-06-26T11:24:24;98915.19;;;28.55;39.88
62712;BME280;48772;55.586;37.730;2023-06-26T11:26:50;98901.78;;;28.15;39.68
62712;BME280;48772;55.586;37.730;2023-06-26T11:29:17;98895.53;;;28.42;39.33
62712;BME280;48772;55.586;37.730;2023-06-26T11:31:42;98895.19;;;28.55;39.41
62712;BME280;48772;55.586;37.730;2023-06-26T11:34:10;98916.38;;;28.59;39.08
62712;BME280;48772;55.586;37.730;2023-06-26T11:36:41;98900.63;;;28.11;39.88
62712;BME280;48772;55.586;37.730;2023-06-26T11:39:08;98902.84;;;28.36;38.89
62712;BME280;48772;55.586;37.730;2023-06-26T11:41:36;98901.69;;;28.49;39.20
62712;BME280;48772;55.586;37.730;2023-06-26T11:44:06;98895.47;;;28.37;38.78
62712;BME280;48772;55.586;37.730;2023-06-26T11:46:34;98893.59;;;27.99;36.33
62712;BME280;48772;55.586;37.730;2023-06-26T11:49:05;98898.84;;;27.84;38.74
62712;BME280;48772;55.586;37.730;2023-06-26T11:51:31;98897.69;;;27.63;38.37
62712;BME280;48772;55.586;37.730;2023-06-26T11:53:56;98885.75;;;27.36;38.41
62712;BME280;48772;55.586;37.730;2023-06-26T11:56:22;98892.38;;;27.57;38.44
62712;BME280;48772;55.586;37.730;2023-06-26T11:59:05;98893.53;;;27.77;37.29
62712;BME280;48772;55.586;37.730;2023-06-26T12:01:44;98884.66;;;28.08;35.00
62712;BME280;48772;55.586;37.730;2023-06-26T12:04:15;98864.41;;;28.53;34.88
62712;BME280;48772;55.586;37.730;2023-06-26T12:06:46;98872.97;;;28.83;34.72
62712;BME280;48772;55.586;37.730;2023-06-26T12:09:13;98868.81;;;29.02;34.06
62712;BME280;48772;55.586;37.730;2023-06-26T12:11:43;98871.91;;;28.84;33.50
62712;BME280;48772;55.586;37.730;2023-06-26T12:14:10;98861.53;;;28.91;34.31
62712;BME280;48772;55.586;37.730;2023-06-26T12:16:37;98871.78;;;28.74;33.98
62712;BME280;48772;55.586;37.730;2023-06-26T12:19:07;98849.28;;;28.50;34.58
62712;BME280;48772;55.586;37.730;2023-06-26T12:24:03;98839.84;;;28.63;34.76
62712;BME280;48772;55.586;37.730;2023-06-26T12:26:29;98856.63;;;29.19;33.72
62712;BME280;48772;55.586;37.730;2023-06-26T12:29:15;98837.34;;;29.46;33.00
62712;BME280;48772;55.586;37.730;2023-06-26T12:31:48;98848.22;;;29.31;32.72
62712;BME280;48772;55.586;37.730;2023-06-26T12:34:17;98849.22;;;28.67;35.24
62712;BME280;48772;55.586;37.730;2023-06-26T12:36:45;98846.03;;;27.88;38.12
62712;BME280;48772;55.586;37.730;2023-06-26T12:39:12;98856.50;;;27.91;38.84
62712;BME280;48772;55.586;37.730;2023-06-26T12:41:57;98843.53;;;27.87;38.73
62712;BME280;48772;55.586;37.730;2023-06-26T12:44:36;98808.06;;;27.42;38.98
62712;BME280;48772;55.586;37.730;2023-06-26T12:47:24;98853.66;;;27.70;39.43
62712;BME280;48772;55.586;37.730;2023-06-26T12:49:51;98844.94;;;27.89;40.32
62712;BME280;48772;55.586;37.730;2023-06-26T12:52:17;98835.31;;;28.08;39.04
62712;BME280;48772;55.586;37.730;2023-06-26T12:54:51;98849.81;;;28.25;38.61
62712;BME280;48772;55.586;37.730;2023-06-26T12:57:17;98850.66;;;28.26;37.09
62712;BME280;48772;55.586;37.730;2023-06-26T12:59:43;98841.69;;;28.14;37.30